sensor_id;sensor_type;location;lat;lon;timestamp;pressure;altitude;pressure_sealevel;temperature;humidity
12475;BME280;6302;42.624;23.334;2023-04-05T00:00:59;92726.91;;;-0.60;100.00
12475;BME280;6302;42.624;23.334;2023-04-05T00:03:26;92725.72;;;-0.62;100.00
12475;BME280;6302;42.624;23.334;2023-04-05T00:05:53;92731.75;;;-0.58;100.00
12475;BME280;6302;42.624;23.334;2023-04-05T00:08:20;92728.50;;;-0.55;100.00
12475;BME280;6302;42.624;23.334;2023-04-05T00:10:51;92737.97;;;-0.63;100.00
12475;BME280;6302;42.624;23.334;2023-04-05T00:13:18;92722.28;;;-0.67;100.00
12475;BME280;6302;42.624;23.334;2023-04-05T00:15:46;92728.22;;;-0.66;100.00
12475;BME280;6302;42.624;23.334;2023-04-05T00:18:13;92703.16;;;-0.74;100.00
12475;BME280;6302;42.624;23.334;2023-04-05T00:20:46;92709.69;;;-0.64;100.00
12475;BME280;6302;42.624;23.334;2023-04-05T00:23:13;92720.78;;;-0.68;100.00
12475;BME280;6302;42.624;23.334;2023-04-05T00:25:41;92715.56;;;-0.68;100.00
12475;BME280;6302;42.624;23.334;2023-04-05T00:28:08;92716.22;;;-0.71;100.00
12475;BME280;6302;42.624;23.334;2023-04-05T00:30:35;92721.69;;;-0.60;100.00
12475;BME280;6302;42.624;23.334;2023-04-05T00:33:03;92718.00;;;-0.59;100.00
12475;BME280;6302;42.624;23.334;2023-04-05T00:35:30;92724.47;;;-0.53;100.00
12475;BME280;6302;42.624;23.334;2023-04-05T00:37:57;92728.50;;;-0.55;100.00
12475;BME280;6302;42.624;23.334;2023-04-05T00:40:24;92734.53;;;-0.51;100.00
12475;BME280;6302;42.624;23.334;2023-04-05T00:42:51;92726.72;;;-0.51;100.00
12475;BME280;6302;42.624;23.334;2023-04-05T00:45:17;92730.25;;;-0.59;100.00
12475;BME280;6302;42.624;23.334;2023-04-05T00:47:44;92717.31;;;-0.56;100.00
12475;BME280;6302;42.624;23.334;2023-04-05T00:50:13;92727.47;;;-0.67;100.00
12475;BME280;6302;42.624;23.334;2023-04-05T00:52:42;92730.16;;;-0.63;100.00
12475;BME280;6302;42.624;23.334;2023-04-05T00:55:09;92722.97;;;-0.70;100.00
12475;BME280;6302;42.624;23.334;2023-04-05T00:57:37;92731.25;;;-0.64;100.00
12475;BME280;6302;42.624;23.334;2023-04-05T01:00:06;92731.59;;;-0.66;100.00
12475;BME280;6302;42.624;23.334;2023-04-05T01:02:36;92735.38;;;-0.63;100.00
12475;BME280;6302;42.624;23.334;2023-04-05T01:05:20;92736.91;;;-0.62;100.00
12475;BME280;6302;42.624;23.334;2023-04-05T01:07:56;92739.97;;;-0.56;100.00
12475;BME280;6302;42.624;23.334;2023-04-05T01:10:27;92733.69;;;-0.55;100.00
12475;BME280;6302;42.624;23.334;2023-04-05T01:12:56;92742.50;;;-0.60;100.00
12475;BME280;6302;42.624;23.334;2023-04-05T01:15:24;92729.09;;;-0.62;100.00
12475;BME280;6302;42.624;23.334;2023-04-05T01:17:51;92735.47;;;-0.59;100.00
12475;BME280;6302;42.624;23.334;2023-04-05T01:20:20;92741.50;;;-0.55;100.00
12475;BME280;6302;42.624;23.334;2023-04-05T01:23:11;92742.16;;;-0.58;100.00
12475;BME280;6302;42.624;23.334;2023-04-05T01:26:09;92740.44;;;-0.54;100.00
12475;BME280;6302;42.624;23.334;2023-04-05T01:28:58;92754.69;;;-0.48;100.00
12475;BME280;6302;42.624;23.334;2023-04-05T01:31:42;92740.69;;;-0.59;100.00
12475;BME280;6302;42.624;23.334;2023-04-05T01:34:16;92750.59;;;-0.49;100.00
12475;BME280;6302;42.624;23.334;2023-04-05T01:36:49;92735.28;;;-0.51;100.00
12475;BME280;6302;42.624;23.334;2023-04-05T01:39:19;92731.94;;;-0.51;100.00
12475;BME280;6302;42.624;23.334;2023-04-05T01:41:46;92736.97;;;-0.58;100.00
12475;BME280;6302;42.624;23.334;2023-04-05T01:44:13;92734.72;;;-0.60;100.00
12475;BME280;6302;42.624;23.334;2023-04-05T01:46:42;92757.38;;;-0.60;100.00
12475;BME280;6302;42.624;23.334;2023-04-05T01:49:08;92735.63;;;-0.68;100.00
12475;BME280;6302;42.624;23.334;2023-04-05T01:51:35;92738.56;;;-0.70;100.00
12475;BME280;6302;42.624;23.334;2023-04-05T01:54:06;92741.75;;;-0.60;100.00
12475;BME280;6302;42.624;23.334;2023-04-05T01:56:33;92730.69;;;-0.57;100.00
12475;BME280;6302;42.624;23.334;2023-04-05T01:58:59;92743.59;;;-0.61;100.00
12475;BME280;6302;42.624;23.334;2023-04-05T02:01:26;92746.97;;;-0.60;100.00
12475;BME280;6302;42.624;23.334;2023-04-05T02:03:54;92738.81;;;-0.59;100.00
12475;BME280;6302;42.624;23.334;2023-04-05T02:06:21;92743.03;;;-0.54;100.00
12475;BME280;6302;42.624;23.334;2023-04-05T02:08:48;92741.91;;;-0.53;100.00
12475;BME280;6302;42.624;23.334;2023-04-05T02:11:15;92740.19;;;-0.49;100.00
12475;BME280;6302;42.624;23.334;2023-04-05T02:13:41;92734.63;;;-0.48;100.00
12475;BME280;6302;42.624;23.334;2023-04-05T02:16:08;92739.47;;;-0.46;100.00
12475;BME280;6302;42.624;23.334;2023-04-05T02:18:35;92725.03;;;-0.44;100.00
12475;BME280;6302;42.624;23.334;2023-04-05T02:21:05;92738.81;;;-0.43;100.00
12475;BME280;6302;42.624;23.334;2023-04-05T02:23:33;92735.13;;;-0.42;100.00
12475;BME280;6302;42.624;23.334;2023-04-05T02:26:00;92734.53;;;-0.36;100.00
12475;BME280;6302;42.624;23.334;2023-04-05T02:28:27;92736.22;;;-0.43;100.00
12475;BME280;6302;42.624;23.334;2023-04-05T02:30:54;92738.00;;;-0.47;100.00
12475;BME280;6302;42.624;23.334;2023-04-05T02:33:21;92743.84;;;-0.50;100.00
12475;BME280;6302;42.624;23.334;2023-04-05T02:35:48;92737.47;;;-0.53;100.00
12475;BME280;6302;42.624;23.334;2023-04-05T02:38:17;92733.44;;;-0.50;100.00
12475;BME280;6302;42.624;23.334;2023-04-05T02:40:45;92730.59;;;-0.45;100.00
12475;BME280;6302;42.624;23.334;2023-04-05T02:43:12;92732.53;;;-0.42;100.00
12475;BME280;6302;42.624;23.334;2023-04-05T02:45:38;92724.28;;;-0.44;100.00
12475;BME280;6302;42.624;23.334;2023-04-05T02:48:05;92732.84;;;-0.44;100.00
12475;BME280;6302;42.624;23.334;2023-04-05T02:50:32;92742.94;;;-0.42;100.00
12475;BME280;6302;42.624;23.334;2023-04-05T02:52:59;92739.91;;;-0.44;100.00
12475;BME280;6302;42.624;23.334;2023-04-05T02:55:27;92729.69;;;-0.37;100.00
12475;BME280;6302;42.624;23.334;2023-04-05T02:57:57;92727.75;;;-0.40;100.00
12475;BME280;6302;42.624;23.334;2023-04-05T03:00:26;92716.91;;;-0.42;100.00
12475;BME280;6302;42.624;23.334;2023-04-05T03:02:53;92739.91;;;-0.44;100.00
12475;BME280;6302;42.624;23.334;2023-04-05T03:05:20;92729.16;;;-0.43;100.00
12475;BME280;6302;42.624;23.334;2023-04-05T03:07:48;92729.94;;;-0.42;100.00
12475;BME280;6302;42.624;23.334;2023-04-05T03:10:16;92726.22;;;-0.41;100.00
12475;BME280;6302;42.624;23.334;2023-04-05T03:12:45;92718.16;;;-0.36;100.00
12475;BME280;6302;42.624;23.334;2023-04-05T03:15:12;92700.88;;;-0.60;100.00
12475;BME280;6302;42.624;23.334;2023-04-05T03:17:38;92724.78;;;-0.39;100.00
12475;BME280;6302;42.624;23.334;2023-04-05T03:20:10;92731.16;;;-0.36;100.00
12475;BME280;6302;42.624;23.334;2023-04-05T03:22:37;92720.00;;;-0.37;100.00
12475;BME280;6302;42.624;23.334;2023-04-05T03:25:04;92725.81;;;-0.43;100.00
12475;BME280;6302;42.624;23.334;2023-04-05T03:27:31;92723.34;;;-0.36;100.00
12475;BME280;6302;42.624;23.334;2023-04-05T03:30:00;92721.88;;;-0.37;100.00
12475;BME280;6302;42.624;23.334;2023-04-05T03:32:26;92725.97;;;-0.36;100.00
12475;BME280;6302;42.624;23.334;2023-04-05T03:34:53;92724.47;;;-0.37;100.00
12475;BME280;6302;42.624;23.334;2023-04-05T03:37:20;92734.69;;;-0.44;100.00
12475;BME280;6302;42.624;23.334;2023-04-05T03:39:47;92728.66;;;-0.48;100.00
12475;BME280;6302;42.624;23.334;2023-04-05T03:42:13;92734.13;;;-0.38;100.00
12475;BME280;6302;42.624;23.334;2023-04-05T03:44:42;92734.28;;;-0.46;100.00
12475;BME280;6302;42.624;23.334;2023-04-05T03:47:10;92742.34;;;-0.51;100.00
12475;BME280;6302;42.624;23.334;2023-04-05T03:49:37;92755.78;;;-0.49;100.00
12475;BME280;6302;42.624;23.334;2023-04-05T03:52:04;92744.28;;;-0.48;100.00
12475;BME280;6302;42.624;23.334;2023-04-05T03:54:31;92750.31;;;-0.44;100.00
12475;BME280;6302;42.624;23.334;2023-04-05T03:56:57;92757.19;;;-0.36;100.00
12475;BME280;6302;42.624;23.334;2023-04-05T03:59:25;92756.94;;;-0.31;100.00
12475;BME280;6302;42.624;23.334;2023-04-05T04:01:52;92755.78;;;-0.34;100.00
12475;BME280;6302;42.624;23.334;2023-04-05T04:04:20;92762.41;;;-0.36;100.00
12475;BME280;6302;42.624;23.334;2023-04-05T04:06:47;92756.78;;;-0.38;100.00
12475;BME280;6302;42.624;23.334;2023-04-05T04:09:13;92757.13;;;-0.40;100.00
12475;BME280;6302;42.624;23.334;2023-04-05T04:11:40;92761.47;;;-0.44;100.00
12475;BME280;6302;42.624;23.334;2023-04-05T04:14:07;92770.28;;;-0.48;100.00
12475;BME280;6302;42.624;23.334;2023-04-05T04:16:34;92756.22;;;-0.47;100.00
12475;BME280;6302;42.624;23.334;2023-04-05T04:19:01;92754.16;;;-0.54;100.00
12475;BME280;6302;42.624;23.334;2023-04-05T04:21:29;92769.38;;;-0.56;100.00
12475;BME280;6302;42.624;23.334;2023-04-05T04:23:57;92765.69;;;-0.55;100.00
12475;BME280;6302;42.624;23.334;2023-04-05T04:26:25;92775.50;;;-0.48;100.00
12475;BME280;6302;42.624;23.334;2023-04-05T04:28:54;92764.25;;;-0.37;100.00
12475;BME280;6302;42.624;23.334;2023-04-05T04:31:21;92768.28;;;-0.39;100.00
12475;BME280;6302;42.624;23.334;2023-04-05T04:33:51;92768.47;;;-0.32;100.00
12475;BME280;6302;42.624;23.334;2023-04-05T04:36:19;92775.28;;;-0.28;100.00
12475;BME280;6302;42.624;23.334;2023-04-05T04:39:00;92760.41;;;-0.27;100.00
12475;BME280;6302;42.624;23.334;2023-04-05T04:41:29;92767.94;;;-0.22;100.00
12475;BME280;6302;42.624;23.334;2023-04-05T04:43:58;92763.59;;;-0.18;100.00
12475;BME280;6302;42.624;23.334;2023-04-05T04:46:27;92772.72;;;-0.09;100.00
12475;BME280;6302;42.624;23.334;2023-04-05T04:48:59;92767.63;;;-0.05;100.00
12475;BME280;6302;42.624;23.334;2023-04-05T04:51:30;92767.69;;;-0.02;100.00
12475;BME280;6302;42.624;23.334;2023-04-05T04:54:01;92758.69;;;-0.04;100.00
12475;BME280;6302;42.624;23.334;2023-04-05T04:56:28;92766.50;;;0.12;100.00
12475;BME280;6302;42.624;23.334;2023-04-05T04:58:55;92784.97;;;0.07;100.00
12475;BME280;6302;42.624;23.334;2023-04-05T05:01:22;92771.63;;;0.08;100.00
12475;BME280;6302;42.624;23.334;2023-04-05T05:03:51;92788.81;;;0.13;100.00
12475;BME280;6302;42.624;23.334;2023-04-05T05:06:18;92779.94;;;0.14;100.00
12475;BME280;6302;42.624;23.334;2023-04-05T05:08:46;92775.38;;;0.11;100.00
12475;BME280;6302;42.624;23.334;2023-04-05T05:11:14;92769.69;;;0.05;100.00
12475;BME280;6302;42.624;23.334;2023-04-05T05:13:41;92781.13;;;0.00;100.00
12475;BME280;6302;42.624;23.334;2023-04-05T05:16:08;92786.41;;;0.04;100.00
12475;BME280;6302;42.624;23.334;2023-04-05T05:18:35;92780.38;;;0.00;100.00
12475;BME280;6302;42.624;23.334;2023-04-05T05:21:02;92778.88;;;-0.01;100.00
12475;BME280;6302;42.624;23.334;2023-04-05T05:23:29;92779.53;;;0.12;100.00
12475;BME280;6302;42.624;23.334;2023-04-05T05:25:58;92789.19;;;0.11;100.00
12475;BME280;6302;42.624;23.334;2023-04-05T05:28:27;92781.06;;;-0.03;100.00
12475;BME280;6302;42.624;23.334;2023-04-05T05:30:53;92781.72;;;-0.06;100.00
12475;BME280;6302;42.624;23.334;2023-04-05T05:33:20;92780.44;;;0.04;100.00
12475;BME280;6302;42.624;23.334;2023-04-05T05:35:47;92780.50;;;0.23;100.00
12475;BME280;6302;42.624;23.334;2023-04-05T05:38:15;92783.50;;;0.25;100.00
12475;BME280;6302;42.624;23.334;2023-04-05T05:40:42;92782.69;;;0.21;100.00
12475;BME280;6302;42.624;23.334;2023-04-05T05:43:09;92783.50;;;0.25;100.00
12475;BME280;6302;42.624;23.334;2023-04-05T05:45:37;92773.19;;;0.13;100.00
12475;BME280;6302;42.624;23.334;2023-04-05T05:48:04;92779.94;;;0.14;100.00
12475;BME280;6302;42.624;23.334;2023-04-05T05:50:31;92765.72;;;0.11;100.00
12475;BME280;6302;42.624;23.334;2023-04-05T05:52:58;92761.19;;;0.08;100.00
12475;BME280;6302;42.624;23.334;2023-04-05T05:55:25;92767.47;;;0.23;100.00
12475;BME280;6302;42.624;23.334;2023-04-05T05:57:53;92775.88;;;0.32;100.00
12475;BME280;6302;42.624;23.334;2023-04-05T06:00:20;92774.16;;;0.39;100.00
12475;BME280;6302;42.624;23.334;2023-04-05T06:02:48;92791.13;;;0.49;100.00
12475;BME280;6302;42.624;23.334;2023-04-05T06:05:16;92778.56;;;0.54;100.00
12475;BME280;6302;42.624;23.334;2023-04-05T06:07:43;92783.69;;;0.67;100.00
12475;BME280;6302;42.624;23.334;2023-04-05T06:10:11;92795.06;;;0.78;100.00
12475;BME280;6302;42.624;23.334;2023-04-05T06:12:37;92788.22;;;0.89;100.00
12475;BME280;6302;42.624;23.334;2023-04-05T06:15:06;92789.44;;;0.95;100.00
12475;BME280;6302;42.624;23.334;2023-04-05T06:17:34;92789.56;;;1.02;100.00
12475;BME280;6302;42.624;23.334;2023-04-05T06:20:08;92793.16;;;1.13;100.00
12475;BME280;6302;42.624;23.334;2023-04-05T06:22:36;92800.06;;;1.24;100.00
12475;BME280;6302;42.624;23.334;2023-04-05T06:25:05;92795.81;;;1.36;100.00
12475;BME280;6302;42.624;23.334;2023-04-05T06:27:32;92804.81;;;1.38;100.00
12475;BME280;6302;42.624;23.334;2023-04-05T06:29:59;92804.44;;;1.40;100.00
12475;BME280;6302;42.624;23.334;2023-04-05T06:32:26;92813.84;;;1.44;100.00
12475;BME280;6302;42.624;23.334;2023-04-05T06:34:53;92802.50;;;1.56;100.00
12475;BME280;6302;42.624;23.334;2023-04-05T06:37:21;92807.63;;;1.71;100.00
12475;BME280;6302;42.624;23.334;2023-04-05T06:39:48;92811.50;;;1.81;100.00
12475;BME280;6302;42.624;23.334;2023-04-05T06:42:15;92815.97;;;1.80;100.00
12475;BME280;6302;42.624;23.334;2023-04-05T06:44:41;92824.00;;;1.91;100.00
12475;BME280;6302;42.624;23.334;2023-04-05T06:47:08;92811.69;;;1.91;100.00
12475;BME280;6302;42.624;23.334;2023-04-05T06:49:35;92818.25;;;1.82;100.00
12475;BME280;6302;42.624;23.334;2023-04-05T06:52:02;92810.13;;;1.87;100.00
12475;BME280;6302;42.624;23.334;2023-04-05T06:54:31;92824.97;;;1.83;100.00
12475;BME280;6302;42.624;23.334;2023-04-05T06:56:58;92824.84;;;1.76;100.00
12475;BME280;6302;42.624;23.334;2023-04-05T06:59:27;92831.41;;;1.66;100.00
12475;BME280;6302;42.624;23.334;2023-04-05T07:01:54;92842.25;;;1.68;100.00
12475;BME280;6302;42.624;23.334;2023-04-05T07:04:21;92842.44;;;1.79;100.00
12475;BME280;6302;42.624;23.334;2023-04-05T07:06:48;92852.41;;;1.73;100.00
12475;BME280;6302;42.624;23.334;2023-04-05T07:09:15;92860.09;;;1.63;100.00
12475;BME280;6302;42.624;23.334;2023-04-05T07:11:43;92872.31;;;1.59;100.00
12475;BME280;6302;42.624;23.334;2023-04-05T07:14:10;92829.03;;;1.39;100.00
12475;BME280;6302;42.624;23.334;2023-04-05T07:16:37;92841.25;;;1.54;100.00
12475;BME280;6302;42.624;23.334;2023-04-05T07:19:03;92850.66;;;1.58;100.00
12475;BME280;6302;42.624;23.334;2023-04-05T07:21:31;92843.41;;;1.71;100.00
12475;BME280;6302;42.624;23.334;2023-04-05T07:23:58;92857.88;;;1.65;100.00
12475;BME280;6302;42.624;23.334;2023-04-05T07:26:26;92855.38;;;1.72;100.00
12475;BME280;6302;42.624;23.334;2023-04-05T07:28:54;92847.69;;;1.79;100.00
12475;BME280;6302;42.624;23.334;2023-04-05T07:31:21;92859.03;;;1.67;100.00
12475;BME280;6302;42.624;23.334;2023-04-05T07:33:48;92861.06;;;1.55;100.00
12475;BME280;6302;42.624;23.334;2023-04-05T07:36:15;92860.16;;;1.47;100.00
12475;BME280;6302;42.624;23.334;2023-04-05T07:38:41;92852.81;;;1.53;100.00
12475;BME280;6302;42.624;23.334;2023-04-05T07:41:09;92853.97;;;1.36;100.00
12475;BME280;6302;42.624;23.334;2023-04-05T07:43:36;92863.72;;;1.39;100.00
12475;BME280;6302;42.624;23.334;2023-04-05T07:46:04;92877.41;;;1.52;100.00
12475;BME280;6302;42.624;23.334;2023-04-05T07:48:31;92866.06;;;1.44;100.00
12475;BME280;6302;42.624;23.334;2023-04-05T07:51:02;92867.03;;;1.36;100.00
12475;BME280;6302;42.624;23.334;2023-04-05T07:53:29;92869.63;;;1.36;100.00
12475;BME280;6302;42.624;23.334;2023-04-05T07:55:56;92871.84;;;1.34;100.00
12475;BME280;6302;42.624;23.334;2023-04-05T07:58:23;92863.75;;;1.20;100.00
12475;BME280;6302;42.624;23.334;2023-04-05T08:00:50;92869.09;;;1.08;100.00
12475;BME280;6302;42.624;23.334;2023-04-05T08:03:22;92880.50;;;1.19;100.00
12475;BME280;6302;42.624;23.334;2023-04-05T08:05:48;92873.22;;;1.28;100.00
12475;BME280;6302;42.624;23.334;2023-04-05T08:08:15;92879.75;;;1.18;100.00
12475;BME280;6302;42.624;23.334;2023-04-05T08:10:42;92879.94;;;1.10;100.00
12475;BME280;6302;42.624;23.334;2023-04-05T08:13:09;92883.38;;;1.14;100.00
12475;BME280;6302;42.624;23.334;2023-04-05T08:15:36;92882.69;;;1.17;100.00
12475;BME280;6302;42.624;23.334;2023-04-05T08:18:02;92879.13;;;1.25;100.00
12475;BME280;6302;42.624;23.334;2023-04-05T08:20:31;92893.84;;;1.33;100.00
12475;BME280;6302;42.624;23.334;2023-04-05T08:23:03;92871.56;;;1.20;100.00
12475;BME280;6302;42.624;23.334;2023-04-05T08:25:30;92909.00;;;1.27;100.00
12475;BME280;6302;42.624;23.334;2023-04-05T08:27:56;92888.31;;;1.19;100.00
12475;BME280;6302;42.624;23.334;2023-04-05T08:30:23;92874.53;;;1.18;100.00
12475;BME280;6302;42.624;23.334;2023-04-05T08:32:51;92904.25;;;1.14;100.00
12475;BME280;6302;42.624;23.334;2023-04-05T08:35:18;92882.56;;;1.10;100.00
12475;BME280;6302;42.624;23.334;2023-04-05T08:37:46;92891.38;;;1.21;100.00
12475;BME280;6302;42.624;23.334;2023-04-05T08:40:13;92892.72;;;1.15;100.00
12475;BME280;6302;42.624;23.334;2023-04-05T08:42:42;92896.84;;;1.16;100.00
12475;BME280;6302;42.624;23.334;2023-04-05T08:45:13;92914.38;;;1.00;100.00
12475;BME280;6302;42.624;23.334;2023-04-05T08:47:41;92889.88;;;1.04;100.00
12475;BME280;6302;42.624;23.334;2023-04-05T08:50:09;92891.19;;;0.95;100.00
12475;BME280;6302;42.624;23.334;2023-04-05T08:52:38;92904.88;;;1.07;100.00
12475;BME280;6302;42.624;23.334;2023-04-05T08:55:09;92911.25;;;1.10;100.00
12475;BME280;6302;42.624;23.334;2023-04-05T08:57:36;92907.28;;;1.16;100.00
12475;BME280;6302;42.624;23.334;2023-04-05T09:00:07;92920.06;;;1.21;100.00
12475;BME280;6302;42.624;23.334;2023-04-05T09:02:35;92908.94;;;1.24;100.00
12475;BME280;6302;42.624;23.334;2023-04-05T09:05:08;92917.59;;;1.28;100.00
12475;BME280;6302;42.624;23.334;2023-04-05T09:07:36;92924.03;;;1.34;100.00
12475;BME280;6302;42.624;23.334;2023-04-05T09:10:05;92927.91;;;1.40;100.00
12475;BME280;6302;42.624;23.334;2023-04-05T09:12:34;92898.56;;;1.47;100.00
12475;BME280;6302;42.624;23.334;2023-04-05T09:15:03;92930.94;;;1.42;100.00
12475;BME280;6302;42.624;23.334;2023-04-05T09:17:31;92916.50;;;1.48;100.00
12475;BME280;6302;42.624;23.334;2023-04-05T09:19:59;92930.94;;;1.61;100.00
12475;BME280;6302;42.624;23.334;2023-04-05T09:22:26;92933.34;;;1.70;100.00
12475;BME280;6302;42.624;23.334;2023-04-05T09:24:53;92929.41;;;1.79;100.00
12475;BME280;6302;42.624;23.334;2023-04-05T09:27:21;92925.00;;;1.83;100.00
12475;BME280;6302;42.624;23.334;2023-04-05T09:29:49;92922.09;;;1.88;100.00
12475;BME280;6302;42.624;23.334;2023-04-05T09:32:16;92921.59;;;1.79;100.00
12475;BME280;6302;42.624;23.334;2023-04-05T09:34:46;92926.16;;;1.86;100.00
12475;BME280;6302;42.624;23.334;2023-04-05T09:37:14;92924.94;;;1.80;100.00
12475;BME280;6302;42.624;23.334;2023-04-05T09:39:42;92921.31;;;1.84;100.00
12475;BME280;6302;42.624;23.334;2023-04-05T09:42:11;92936.72;;;1.70;100.00
12475;BME280;6302;42.624;23.334;2023-04-05T09:44:51;92929.97;;;1.69;100.00
12475;BME280;6302;42.624;23.334;2023-04-05T09:47:19;92918.91;;;1.57;100.00
12475;BME280;6302;42.624;23.334;2023-04-05T09:49:46;92919.31;;;1.59;100.00
12475;BME280;6302;42.624;23.334;2023-04-05T09:52:18;92918.56;;;1.77;100.00
12475;BME280;6302;42.624;23.334;2023-04-05T09:54:45;92924.19;;;1.79;100.00
12475;BME280;6302;42.624;23.334;2023-04-05T09:57:14;92930.09;;;1.76;100.00
12475;BME280;6302;42.624;23.334;2023-04-05T09:59:41;92934.09;;;1.70;100.00
12475;BME280;6302;42.624;23.334;2023-04-05T10:02:10;92927.34;;;1.69;100.00
12475;BME280;6302;42.624;23.334;2023-04-05T10:04:38;92927.63;;;1.83;100.00
12475;BME280;6302;42.624;23.334;2023-04-05T10:07:06;92907.41;;;1.80;100.00
12475;BME280;6302;42.624;23.334;2023-04-05T10:09:33;92927.00;;;2.13;100.00
12475;BME280;6302;42.624;23.334;2023-04-05T10:12:00;92932.97;;;2.10;100.00
12475;BME280;6302;42.624;23.334;2023-04-05T10:14:28;92947.31;;;2.00;100.00
12475;BME280;6302;42.624;23.334;2023-04-05T10:16:58;92952.38;;;1.89;100.00
12475;BME280;6302;42.624;23.334;2023-04-05T10:19:40;92938.34;;;1.78;100.00
12475;BME280;6302;42.624;23.334;2023-04-05T10:22:14;92933.06;;;1.75;100.00
12475;BME280;6302;42.624;23.334;2023-04-05T10:24:47;92940.91;;;1.75;100.00
12475;BME280;6302;42.624;23.334;2023-04-05T10:27:19;92947.63;;;1.57;100.00
12475;BME280;6302;42.624;23.334;2023-04-05T10:29:50;92946.28;;;1.63;100.00
12475;BME280;6302;42.624;23.334;2023-04-05T10:32:29;92941.84;;;1.67;100.00
12475;BME280;6302;42.624;23.334;2023-04-05T10:35:08;92947.97;;;1.74;100.00
12475;BME280;6302;42.624;23.334;2023-04-05T10:37:40;92946.47;;;1.73;100.00
12475;BME280;6302;42.624;23.334;2023-04-05T10:40:15;92929.81;;;1.81;100.00
12475;BME280;6302;42.624;23.334;2023-04-05T10:42:46;92955.41;;;1.72;100.00
12475;BME280;6302;42.624;23.334;2023-04-05T10:45:16;92945.63;;;1.88;100.00
12475;BME280;6302;42.624;23.334;2023-04-05T10:47:55;92945.81;;;1.99;100.00
12475;BME280;6302;42.624;23.334;2023-04-05T10:50:24;92947.19;;;2.12;100.00
12475;BME280;6302;42.624;23.334;2023-04-05T10:52:51;92939.19;;;2.05;100.00
12475;BME280;6302;42.624;23.334;2023-04-05T10:55:19;92955.53;;;1.98;100.00
12475;BME280;6302;42.624;23.334;2023-04-05T10:57:47;92952.25;;;2.05;100.00
12475;BME280;6302;42.624;23.334;2023-04-05T11:00:16;92955.78;;;1.93;100.00
12475;BME280;6302;42.624;23.334;2023-04-05T11:02:44;92938.53;;;1.89;100.00
12475;BME280;6302;42.624;23.334;2023-04-05T11:05:31;92949.56;;;2.21;100.00
12475;BME280;6302;42.624;23.334;2023-04-05T11:08:01;92966.09;;;2.06;100.00
12475;BME280;6302;42.624;23.334;2023-04-05T11:10:29;92960.59;;;2.11;100.00
12475;BME280;6302;42.624;23.334;2023-04-05T11:13:09;92969.88;;;2.08;100.00
12475;BME280;6302;42.624;23.334;2023-04-05T11:15:39;92952.00;;;1.91;100.00
12475;BME280;6302;42.624;23.334;2023-04-05T11:18:08;92969.59;;;2.13;100.00
12475;BME280;6302;42.624;23.334;2023-04-05T11:20:44;92959.78;;;2.07;100.00
12475;BME280;6302;42.624;23.334;2023-04-05T11:23:12;92952.38;;;2.31;100.00
12475;BME280;6302;42.624;23.334;2023-04-05T11:25:45;92951.13;;;2.25;100.00
12475;BME280;6302;42.624;23.334;2023-04-05T11:28:27;92946.66;;;2.26;100.00
12475;BME280;6302;42.624;23.334;2023-04-05T11:30:54;92976.41;;;2.40;100.00
12475;BME280;6302;42.624;23.334;2023-04-05T11:33:38;92959.44;;;2.31;100.00
12475;BME280;6302;42.624;23.334;2023-04-05T11:36:06;92958.94;;;2.44;100.00
12475;BME280;6302;42.624;23.334;2023-04-05T11:38:34;92960.34;;;2.38;100.00
12475;BME280;6302;42.624;23.334;2023-04-05T11:41:11;92962.47;;;2.55;100.00
12475;BME280;6302;42.624;23.334;2023-04-05T11:43:41;92947.78;;;2.47;100.00
12475;BME280;6302;42.624;23.334;2023-04-05T11:46:08;92953.47;;;2.53;100.00
12475;BME280;6302;42.624;23.334;2023-04-05T11:48:35;92971.03;;;2.52;100.00
12475;BME280;6302;42.624;23.334;2023-04-05T11:51:07;92952.88;;;2.40;100.00
12475;BME280;6302;42.624;23.334;2023-04-05T11:53:34;92971.47;;;2.35;100.00
12475;BME280;6302;42.624;23.334;2023-04-05T11:56:08;92959.53;;;2.15;100.00
12475;BME280;6302;42.624;23.334;2023-04-05T11:58:37;92953.41;;;2.27;100.00
12475;BME280;6302;42.624;23.334;2023-04-05T12:01:05;92960.69;;;2.37;100.00
12475;BME280;6302;42.624;23.334;2023-04-05T12:03:33;92961.72;;;2.32;100.00
12475;BME280;6302;42.624;23.334;2023-04-05T12:06:01;92969.16;;;2.30;100.00
12475;BME280;6302;42.624;23.334;2023-04-05T12:08:39;92973.06;;;2.40;100.00
12475;BME280;6302;42.624;23.334;2023-04-05T12:11:07;92948.53;;;2.48;100.00
12475;BME280;6302;42.624;23.334;2023-04-05T12:13:35;92956.19;;;2.60;100.00
12475;BME280;6302;42.624;23.334;2023-04-05T12:16:03;92950.78;;;2.49;100.00
12475;BME280;6302;42.624;23.334;2023-04-05T12:18:31;92959.56;;;2.38;100.00
12475;BME280;6302;42.624;23.334;2023-04-05T12:21:00;92950.28;;;2.40;100.00
12475;BME280;6302;42.624;23.334;2023-04-05T12:23:27;92959.81;;;2.52;100.00
12475;BME280;6302;42.624;23.334;2023-04-05T12:25:56;92955.69;;;2.51;100.00
12475;BME280;6302;42.624;23.334;2023-04-05T12:28:23;92981.38;;;2.45;100.00
12475;BME280;6302;42.624;23.334;2023-04-05T12:30:51;92966.66;;;2.37;100.00
12475;BME280;6302;42.624;23.334;2023-04-05T12:33:28;92954.75;;;2.40;100.00
12475;BME280;6302;42.624;23.334;2023-04-05T12:35:55;92950.97;;;2.60;100.00
12475;BME280;6302;42.624;23.334;2023-04-05T12:38:25;92955.44;;;2.82;100.00
12475;BME280;6302;42.624;23.334;2023-04-05T12:40:52;92960.22;;;3.03;100.00
12475;BME280;6302;42.624;23.334;2023-04-05T12:43:21;92949.19;;;3.16;100.00
12475;BME280;6302;42.624;23.334;2023-04-05T12:45:52;92955.84;;;3.10;100.00
12475;BME280;6302;42.624;23.334;2023-04-05T12:48:22;92953.25;;;3.10;100.00
12475;BME280;6302;42.624;23.334;2023-04-05T12:50:50;92953.28;;;3.14;100.00
12475;BME280;6302;42.624;23.334;2023-04-05T12:53:20;92954.44;;;2.90;100.00
12475;BME280;6302;42.624;23.334;2023-04-05T12:55:48;92960.38;;;2.64;100.00
12475;BME280;6302;42.624;23.334;2023-04-05T12:58:16;92960.75;;;2.63;100.00
12475;BME280;6302;42.624;23.334;2023-04-05T13:00:45;92973.94;;;2.47;100.00
12475;BME280;6302;42.624;23.334;2023-04-05T13:03:15;92966.25;;;2.35;100.00